createdAt,value
2023-05-17T00:03:14.462Z,100.00
2023-05-17T00:07:16.135Z,100.00
2023-05-17T00:11:18.150Z,100.00
2023-05-17T00:15:19.808Z,100.00
2023-05-17T00:19:21.436Z,100.00
2023-05-17T00:23:26.369Z,100.00
2023-05-17T00:27:27.970Z,100.00
2023-05-17T00:31:31.351Z,100.00
2023-05-17T00:35:32.782Z,100.00
2023-05-17T00:39:36.947Z,100.00
2023-05-17T00:43:39.760Z,100.00
2023-05-17T00:47:42.096Z,100.00
2023-05-17T00:51:51.780Z,100.00
2023-05-17T00:55:54.840Z,100.00
2023-05-17T01:00:02.992Z,100.00
2023-05-17T01:04:06.878Z,100.00
2023-05-17T01:08:08.543Z,100.00
2023-05-17T01:12:28.439Z,100.00
2023-05-17T01:16:44.978Z,100.00
2023-05-17T01:20:52.211Z,100.00
2023-05-17T01:25:37.587Z,100.00
2023-05-17T01:29:43.754Z,100.00
2023-05-17T01:33:46.299Z,100.00
2023-05-17T01:37:48.420Z,100.00
2023-05-17T01:42:06.806Z,100.00
2023-05-17T01:46:41.189Z,100.00
2023-05-17T01:50:47.044Z,100.00
2023-05-17T01:55:18.600Z,100.00
2023-05-17T01:59:24.762Z,100.00
2023-05-17T02:03:29.702Z,100.00
2023-05-17T02:07:31.337Z,100.00
2023-05-17T02:11:33.013Z,100.00
2023-05-17T02:15:34.649Z,100.00
2023-05-17T02:19:36.309Z,100.00
2023-05-17T02:23:38.049Z,100.00
2023-05-17T02:27:39.765Z,100.00
2023-05-17T02:31:41.444Z,100.00
2023-05-17T02:35:43.032Z,100.00
2023-05-17T02:39:44.654Z,100.00
2023-05-17T02:43:46.336Z,100.00
2023-05-17T02:47:47.984Z,100.00
2023-05-17T02:51:49.844Z,100.00
2023-05-17T02:55:51.828Z,100.00
2023-05-17T02:59:53.403Z,100.00
2023-05-17T03:03:55.200Z,100.00
2023-05-17T03:07:57.265Z,100.00
2023-05-17T03:11:59.102Z,100.00
2023-05-17T03:16:00.963Z,100.00
2023-05-17T03:20:03.733Z,100.00
2023-05-17T03:24:06.052Z,100.00
2023-05-17T03:28:07.801Z,100.00
2023-05-17T03:32:09.566Z,100.00
2023-05-17T03:36:11.441Z,100.00
2023-05-17T03:40:50.081Z,100.00
2023-05-17T03:44:52.994Z,100.00
2023-05-17T03:48:56.336Z,100.00
2023-05-17T03:52:59.479Z,100.00
2023-05-17T03:57:03.474Z,100.00
2023-05-17T04:05:51.371Z,100.00
2023-05-17T04:10:00.000Z,100.00
2023-05-17T04:14:03.065Z,100.00
2023-05-17T04:18:05.818Z,100.00
2023-05-17T04:22:08.694Z,100.00
2023-05-17T04:26:10.737Z,100.00
2023-05-17T04:30:12.875Z,100.00
2023-05-17T04:34:14.370Z,99.94
2023-05-17T04:38:39.567Z,99.43
2023-05-17T04:42:50.998Z,96.71
2023-05-17T04:47:37.068Z,93.92
2023-05-17T05:11:28.044Z,81.18
2023-05-17T05:15:34.611Z,79.86
2023-05-17T05:19:37.592Z,80.00
2023-05-17T05:23:40.338Z,79.10
2023-05-17T05:27:43.397Z,80.37
2023-05-17T05:31:46.992Z,81.54
2023-05-17T05:36:02.128Z,82.77
2023-05-17T05:44:25.210Z,85.62
2023-05-17T05:48:27.983Z,87.92
2023-05-17T05:52:29.448Z,87.66
2023-05-17T05:56:31.525Z,86.81
2023-05-17T06:00:33.804Z,87.26
2023-05-17T06:04:44.555Z,88.13
2023-05-17T06:08:57.065Z,88.64
2023-05-17T06:13:01.115Z,90.14
2023-05-17T06:17:02.660Z,88.88
2023-05-17T06:21:04.111Z,90.12
2023-05-17T06:25:05.885Z,86.67
2023-05-17T06:29:07.510Z,87.35
2023-05-17T06:33:09.248Z,87.80
2023-05-17T06:37:10.709Z,88.24
2023-05-17T06:41:12.070Z,87.56
2023-05-17T06:45:13.973Z,88.52
2023-05-17T06:49:15.601Z,86.18
2023-05-17T06:53:17.157Z,88.13
2023-05-17T06:57:20.348Z,89.54
2023-05-17T07:01:21.781Z,91.14
2023-05-17T07:05:23.749Z,91.98
2023-05-17T07:09:25.361Z,91.37
2023-05-17T07:14:18.133Z,91.35
2023-05-17T07:18:19.671Z,89.94
2023-05-17T07:22:21.233Z,91.26
2023-05-17T07:26:23.514Z,91.62
2023-05-17T07:30:25.748Z,93.48
2023-05-17T07:34:55.988Z,94.04
2023-05-17T07:39:01.878Z,94.68
2023-05-17T07:43:03.758Z,91.32
2023-05-17T07:47:05.643Z,91.34
2023-05-17T07:51:07.137Z,91.71
2023-05-17T07:55:09.566Z,90.97
2023-05-17T07:59:25.016Z,92.24
2023-05-17T08:03:28.024Z,91.74
2023-05-17T08:07:30.264Z,92.87
2023-05-17T08:11:35.067Z,92.76
2023-05-17T08:15:37.708Z,91.33
2023-05-17T08:19:40.896Z,89.66
2023-05-17T08:23:44.399Z,90.99
2023-05-17T08:28:07.090Z,91.25
2023-05-17T08:32:09.588Z,89.47
2023-05-17T08:36:14.357Z,90.05
2023-05-17T08:40:20.006Z,88.24
2023-05-17T08:44:22.779Z,88.15
2023-05-17T08:48:36.266Z,88.36
2023-05-17T08:52:59.883Z,88.47
2023-05-17T08:57:04.112Z,90.02
2023-05-17T09:01:08.071Z,89.86
2023-05-17T09:05:11.628Z,88.91
2023-05-17T09:19:45.184Z,88.18
2023-05-17T09:24:01.753Z,88.32
2023-05-17T09:28:12.235Z,88.19
2023-05-17T09:32:44.473Z,87.25
2023-05-17T09:36:46.203Z,85.74
2023-05-17T09:40:48.482Z,87.23
2023-05-17T09:44:50.000Z,85.24
2023-05-17T09:48:55.739Z,84.28
2023-05-17T09:52:57.213Z,78.96
2023-05-17T09:57:26.160Z,78.74
2023-05-17T10:01:31.768Z,78.93
2023-05-17T10:05:33.634Z,82.44
2023-05-17T10:09:38.756Z,79.33
2023-05-17T10:13:49.793Z,79.32
2023-05-17T10:17:52.059Z,77.47
2023-05-17T10:22:21.635Z,79.31
2023-05-17T10:30:51.194Z,76.63
2023-05-17T10:35:09.292Z,75.94
2023-05-17T10:39:34.623Z,77.58
2023-05-17T10:43:38.652Z,74.96
2023-05-17T10:47:46.230Z,76.07
2023-05-17T10:51:48.518Z,74.83
2023-05-17T10:55:53.080Z,72.28
2023-05-17T11:00:03.152Z,74.61
2023-05-17T11:04:26.445Z,74.55
2023-05-17T11:08:28.710Z,74.36
2023-05-17T11:12:43.264Z,74.23
2023-05-17T11:16:46.098Z,75.00
2023-05-17T11:21:07.180Z,77.71
2023-05-17T11:25:14.403Z,74.97
2023-05-17T11:29:17.334Z,75.34
2023-05-17T11:33:33.606Z,76.68
2023-05-17T11:37:36.653Z,76.61
2023-05-17T11:41:47.411Z,76.82
2023-05-17T11:45:57.852Z,77.12
2023-05-17T11:50:02.384Z,76.90
2023-05-17T11:54:26.007Z,75.71
2023-05-17T12:02:44.275Z,74.19
2023-05-17T12:06:46.487Z,73.51
2023-05-17T12:10:52.235Z,75.93
2023-05-17T12:14:54.194Z,74.79
2023-05-17T12:18:58.053Z,75.62
2023-05-17T12:23:00.254Z,76.80
2023-05-17T12:27:02.473Z,73.49
2023-05-17T12:31:08.855Z,74.93
2023-05-17T12:35:17.709Z,75.32
2023-05-17T12:39:23.879Z,75.83
2023-05-17T12:43:26.348Z,76.24
2023-05-17T12:47:32.827Z,74.47
2023-05-17T12:52:05.305Z,74.95
2023-05-17T12:56:08.323Z,75.38
2023-05-17T13:00:11.300Z,73.62
2023-05-17T13:04:18.810Z,73.79
2023-05-17T13:08:24.286Z,72.54
2023-05-17T13:12:26.462Z,71.70
2023-05-17T13:16:31.827Z,72.04
2023-05-17T13:20:33.831Z,71.13
2023-05-17T13:24:56.113Z,72.14
2023-05-17T13:28:58.895Z,69.91
2023-05-17T13:33:01.608Z,68.19
2023-05-17T13:37:06.303Z,69.45
2023-05-17T13:41:10.153Z,68.93
2023-05-17T13:45:13.186Z,69.50
2023-05-17T13:49:15.891Z,69.19
2023-05-17T13:53:18.893Z,71.65
2023-05-17T13:57:21.536Z,69.78
2023-05-17T14:01:23.901Z,68.50
2023-05-17T14:05:29.605Z,69.35
2023-05-17T14:09:51.553Z,67.01
2023-05-17T14:14:29.766Z,68.87
2023-05-17T14:18:53.106Z,67.76
2023-05-17T14:23:04.910Z,66.74
2023-05-17T14:27:07.215Z,68.10
2023-05-17T14:31:10.403Z,69.11
2023-05-17T14:35:15.372Z,70.18
2023-05-17T14:39:17.967Z,67.09
2023-05-17T14:43:41.232Z,66.25
2023-05-17T14:47:45.410Z,68.38
2023-05-17T14:51:49.334Z,67.08
2023-05-17T15:01:05.337Z,67.70
2023-05-17T15:06:04.198Z,67.61
2023-05-17T15:10:12.727Z,67.38
2023-05-17T15:14:21.503Z,65.59
2023-05-17T15:18:23.433Z,66.00
2023-05-17T15:22:28.776Z,66.82
2023-05-17T15:26:30.250Z,65.03
2023-05-17T15:30:31.597Z,65.09
2023-05-17T15:34:33.179Z,65.60
2023-05-17T15:38:35.113Z,66.18
2023-05-17T15:42:39.816Z,66.22
2023-05-17T15:46:41.236Z,66.42
2023-05-17T15:50:43.517Z,65.34
2023-05-17T15:54:47.812Z,64.20
2023-05-17T15:58:49.541Z,65.10
2023-05-17T16:12:04.956Z,65.12
2023-05-17T16:25:59.000Z,65.84
2023-05-17T16:30:03.436Z,65.76
2023-05-17T17:00:30.726Z,68.52
2023-05-17T17:04:32.423Z,69.82
2023-05-17T17:08:33.845Z,70.52
2023-05-17T17:12:35.613Z,71.14
2023-05-17T17:16:39.766Z,70.46
2023-05-17T17:20:41.250Z,71.59
2023-05-17T17:24:43.913Z,71.24
2023-05-17T17:29:13.176Z,72.12
2023-05-17T17:33:14.922Z,70.75
2023-05-17T17:37:16.545Z,70.27
2023-05-17T17:41:18.349Z,73.53
2023-05-17T17:45:20.224Z,74.70
2023-05-17T17:49:23.683Z,75.32
2023-05-17T17:53:26.461Z,78.24
2023-05-17T17:57:33.884Z,80.36
2023-05-17T18:07:49.664Z,83.27
2023-05-17T18:17:33.948Z,85.86
2023-05-17T18:21:36.881Z,86.64
2023-05-17T18:25:39.905Z,86.52
2023-05-17T18:29:42.988Z,87.01
2023-05-17T18:33:46.151Z,87.12
2023-05-17T18:38:14.793Z,87.41
2023-05-17T18:42:17.598Z,87.11
2023-05-17T18:46:20.644Z,87.02
2023-05-17T18:50:32.695Z,87.31
2023-05-17T18:54:35.447Z,87.71
2023-05-17T18:58:38.805Z,88.39
2023-05-17T19:02:42.126Z,88.89
2023-05-17T19:06:46.953Z,89.18
2023-05-17T19:10:50.167Z,89.60
2023-05-17T19:14:53.322Z,89.74
2023-05-17T19:18:56.649Z,91.14
2023-05-17T19:23:00.836Z,91.21
2023-05-17T19:27:05.140Z,92.12
2023-05-17T19:31:10.729Z,89.49
2023-05-17T19:35:13.827Z,87.65
2023-05-17T19:39:19.640Z,86.40
2023-05-17T19:43:22.638Z,86.19
2023-05-17T19:47:25.516Z,86.52
2023-05-17T19:51:28.636Z,86.48
2023-05-17T19:55:31.596Z,86.16
2023-05-17T19:59:34.739Z,87.19
2023-05-17T20:03:37.755Z,88.32
2023-05-17T20:07:40.883Z,90.12
2023-05-17T20:11:43.995Z,91.58
2023-05-17T20:15:46.952Z,93.21
2023-05-17T20:19:51.296Z,94.50
2023-05-17T20:24:01.167Z,94.75
2023-05-17T20:28:04.259Z,95.34
2023-05-17T20:32:07.507Z,94.22
2023-05-17T20:36:14.162Z,93.60
2023-05-17T20:40:17.322Z,93.27
2023-05-17T20:44:21.845Z,92.69
2023-05-17T20:48:24.996Z,92.22
2023-05-17T20:52:38.905Z,91.85
2023-05-17T20:56:42.737Z,91.68
2023-05-17T21:00:45.640Z,92.98
2023-05-17T21:04:48.659Z,94.17
2023-05-17T21:08:54.793Z,94.67
2023-05-17T21:12:57.767Z,94.80
2023-05-17T21:17:02.484Z,95.89
2023-05-17T21:21:05.662Z,95.70
2023-05-17T21:25:09.082Z,96.05
2023-05-17T21:29:12.070Z,95.62
2023-05-17T21:33:14.852Z,95.84
2023-05-17T21:37:17.789Z,95.89
2023-05-17T21:41:21.692Z,95.95
2023-05-17T21:45:24.793Z,96.13
2023-05-17T21:49:28.717Z,97.11
2023-05-17T21:53:31.710Z,97.22
2023-05-17T21:57:36.620Z,96.46
2023-05-17T22:01:39.685Z,95.72
2023-05-17T22:05:42.717Z,93.97
2023-05-17T22:09:46.756Z,93.82
2023-05-17T22:13:50.586Z,93.83
2023-05-17T22:17:54.483Z,93.29
2023-05-17T22:21:57.393Z,92.90
2023-05-17T22:26:00.704Z,92.07
2023-05-17T22:30:04.381Z,92.09
2023-05-17T22:34:07.316Z,92.92
2023-05-17T22:38:10.427Z,92.73
2023-05-17T22:42:13.408Z,92.56
2023-05-17T22:46:17.244Z,92.56
2023-05-17T22:50:20.402Z,92.11
2023-05-17T22:54:23.343Z,91.80
2023-05-17T22:58:26.491Z,91.55
2023-05-17T23:02:29.695Z,91.98
2023-05-17T23:06:34.383Z,92.67
2023-05-17T23:10:37.977Z,93.02
2023-05-17T23:14:40.912Z,92.44
2023-05-17T23:18:44.534Z,91.14
2023-05-17T23:22:50.041Z,89.64
2023-05-17T23:26:52.969Z,88.86
2023-05-17T23:30:55.885Z,88.81
2023-05-17T23:35:03.396Z,88.88
2023-05-17T23:39:06.577Z,89.44
2023-05-17T23:43:10.393Z,90.18
2023-05-17T23:47:13.254Z,90.99
2023-05-17T23:51:20.455Z,92.45
2023-05-17T23:55:23.396Z,93.44
2023-05-17T23:59:26.301Z,94.12
